createdAt,value
2019-05-21T00:00:09.557Z,66.60
2019-05-21T00:01:09.575Z,66.66
2019-05-21T00:02:09.597Z,66.38
2019-05-21T00:03:09.617Z,66.56
2019-05-21T00:04:09.636Z,66.38
2019-05-21T00:05:09.740Z,66.66
2019-05-21T00:06:09.729Z,66.28
2019-05-21T00:07:09.755Z,66.28
2019-05-21T00:08:09.780Z,66.47
2019-05-21T00:09:09.785Z,66.47
2019-05-21T00:10:09.803Z,66.28
2019-05-21T00:11:09.801Z,66.56
2019-05-21T00:12:09.801Z,66.38
2019-05-21T00:13:09.824Z,66.28
2019-05-21T00:14:09.838Z,66.28
2019-05-21T00:15:09.862Z,66.50
2019-05-21T00:16:09.876Z,66.38
2019-05-21T00:17:09.893Z,66.47
2019-05-21T00:18:09.916Z,66.38
2019-05-21T00:19:09.937Z,66.47
2019-05-21T00:20:09.956Z,66.38
2019-05-21T00:21:09.981Z,66.66
2019-05-21T00:22:09.997Z,66.56
2019-05-21T00:23:10.016Z,66.56
2019-05-21T00:24:10.047Z,66.56
2019-05-21T00:25:10.060Z,66.56
2019-05-21T00:26:10.077Z,66.47
2019-05-21T00:27:10.159Z,66.38
2019-05-21T00:28:10.120Z,66.66
2019-05-21T00:29:10.136Z,66.76
2019-05-21T00:30:10.160Z,66.85
2019-05-21T00:31:10.178Z,66.85
2019-05-21T00:32:10.197Z,67.14
2019-05-21T00:33:10.216Z,66.85
2019-05-21T00:34:10.236Z,66.66
2019-05-21T00:35:10.257Z,66.76
2019-05-21T00:36:10.276Z,66.85
2019-05-21T00:37:10.318Z,66.76
2019-05-21T00:38:10.315Z,66.76
2019-05-21T00:39:10.334Z,66.85
2019-05-21T00:40:10.358Z,66.85
2019-05-21T00:41:10.378Z,66.85
2019-05-21T00:42:10.397Z,66.95
2019-05-21T00:43:10.418Z,66.85
2019-05-21T00:44:10.437Z,66.95
2019-05-21T00:45:10.457Z,66.76
2019-05-21T00:46:10.475Z,66.85
2019-05-21T00:47:10.495Z,66.95
2019-05-21T00:48:10.515Z,67.05
2019-05-21T00:49:10.533Z,67.05
2019-05-21T00:50:10.554Z,67.05
2019-05-21T00:51:10.576Z,67.24
2019-05-21T00:52:10.593Z,67.33
2019-05-21T00:53:10.616Z,67.24
2019-05-21T00:54:10.635Z,67.14
2019-05-21T00:55:10.655Z,66.95
2019-05-21T00:56:10.684Z,66.95
2019-05-21T00:57:10.805Z,66.95
2019-05-21T00:58:10.719Z,67.24
2019-05-21T00:59:10.740Z,67.52
2019-05-21T01:00:10.985Z,67.24
2019-05-21T01:01:10.776Z,67.33
2019-05-21T01:02:10.795Z,67.33
2019-05-21T01:03:10.816Z,67.52
2019-05-21T01:04:10.835Z,67.52
2019-05-21T01:05:10.856Z,67.14
2019-05-21T01:06:10.872Z,67.24
2019-05-21T01:07:10.896Z,67.14
2019-05-21T01:08:10.917Z,66.95
2019-05-21T01:09:10.934Z,67.62
2019-05-21T01:10:10.953Z,67.43
2019-05-21T01:11:10.974Z,67.52
2019-05-21T01:12:10.993Z,67.52
2019-05-21T01:13:11.021Z,67.52
2019-05-21T01:14:11.034Z,67.52
2019-05-21T01:15:11.054Z,67.43
2019-05-21T01:16:11.074Z,67.43
2019-05-21T01:17:11.102Z,67.43
2019-05-21T01:18:11.113Z,68.00
2019-05-21T01:19:11.131Z,67.81
2019-05-21T01:20:11.153Z,67.71
2019-05-21T01:21:11.176Z,67.71
2019-05-21T01:22:11.233Z,67.71
2019-05-21T01:23:11.210Z,67.81
2019-05-21T01:24:11.232Z,67.62
2019-05-21T01:25:11.254Z,67.62
2019-05-21T01:26:11.271Z,67.52
2019-05-21T01:27:11.291Z,67.43
2019-05-21T01:28:11.312Z,67.62
2019-05-21T01:29:11.331Z,68.00
2019-05-21T01:30:11.350Z,68.10
2019-05-21T01:31:11.371Z,68.19
2019-05-21T01:32:11.393Z,68.06
2019-05-21T01:33:11.409Z,68.06
2019-05-21T01:34:11.650Z,68.00
2019-05-21T01:35:17.101Z,67.97
2019-05-21T01:36:11.471Z,67.77
2019-05-21T01:37:11.488Z,67.77
2019-05-21T01:38:11.512Z,68.06
2019-05-21T01:39:11.529Z,68.06
2019-05-21T01:40:11.563Z,68.35
2019-05-21T01:41:11.628Z,68.35
2019-05-21T01:42:11.623Z,68.26
2019-05-21T01:43:11.699Z,68.26
2019-05-21T01:44:11.711Z,68.16
2019-05-21T01:45:11.685Z,68.06
2019-05-21T01:46:11.696Z,68.63
2019-05-21T01:47:11.688Z,68.44
2019-05-21T01:48:11.709Z,68.73
2019-05-21T01:49:11.726Z,68.26
2019-05-21T01:50:11.744Z,68.82
2019-05-21T01:51:11.766Z,68.44
2019-05-21T01:52:11.786Z,68.82
2019-05-21T01:53:11.804Z,68.63
2019-05-21T01:54:11.825Z,68.63
2019-05-21T01:55:11.843Z,68.54
2019-05-21T01:56:11.865Z,68.63
2019-05-21T01:57:11.887Z,68.63
2019-05-21T01:58:11.904Z,68.63
2019-05-21T01:59:11.926Z,68.63
2019-05-21T02:00:11.943Z,68.54
2019-05-21T02:01:11.970Z,68.54
2019-05-21T02:02:11.983Z,68.63
2019-05-21T02:03:12.004Z,68.54
2019-05-21T02:04:12.023Z,68.54
2019-05-21T02:05:12.039Z,68.54
2019-05-21T02:06:12.070Z,68.54
2019-05-21T02:07:12.077Z,68.63
2019-05-21T02:08:12.103Z,68.63
2019-05-21T02:09:12.120Z,68.54
2019-05-21T02:10:12.146Z,68.54
2019-05-21T02:11:12.160Z,68.54
2019-05-21T02:12:12.182Z,68.63
2019-05-21T02:13:12.202Z,68.73
2019-05-21T02:14:12.237Z,68.54
2019-05-21T02:15:12.242Z,68.54
2019-05-21T02:16:12.260Z,68.54
2019-05-21T02:17:12.275Z,68.35
2019-05-21T02:18:12.296Z,68.54
2019-05-21T02:19:12.320Z,68.35
2019-05-21T02:20:12.338Z,68.44
2019-05-21T02:21:12.356Z,68.54
2019-05-21T02:22:12.375Z,68.44
2019-05-21T02:23:12.396Z,68.54
2019-05-21T02:24:12.416Z,68.54
2019-05-21T02:25:12.435Z,68.82
2019-05-21T02:26:12.453Z,68.82
2019-05-21T02:27:12.474Z,68.54
2019-05-21T02:28:12.501Z,68.63
2019-05-21T02:29:12.512Z,68.82
2019-05-21T02:30:12.537Z,69.02
2019-05-21T02:31:12.553Z,68.73
2019-05-21T02:32:12.573Z,68.82
2019-05-21T02:33:12.597Z,68.73
2019-05-21T02:34:12.613Z,68.73
2019-05-21T02:35:12.661Z,68.92
2019-05-21T02:36:12.661Z,68.92
2019-05-21T02:37:12.676Z,69.02
2019-05-21T02:38:12.691Z,68.92
2019-05-21T02:39:12.721Z,68.92
2019-05-21T02:40:12.733Z,69.02
2019-05-21T02:41:12.753Z,68.82
2019-05-21T02:42:12.771Z,68.54
2019-05-21T02:43:12.794Z,68.51
2019-05-21T02:44:12.807Z,69.11
2019-05-21T02:45:12.825Z,68.88
2019-05-21T02:46:12.847Z,69.08
2019-05-21T02:47:12.868Z,69.08
2019-05-21T02:48:12.883Z,69.17
2019-05-21T02:49:12.904Z,69.27
2019-05-21T02:50:12.923Z,69.17
2019-05-21T02:51:12.947Z,68.98
2019-05-21T02:52:12.962Z,69.08
2019-05-21T02:53:12.982Z,68.98
2019-05-21T02:54:13.007Z,69.08
2019-05-21T02:55:13.024Z,69.37
2019-05-21T02:56:13.042Z,69.40
2019-05-21T02:57:13.067Z,69.37
2019-05-21T02:58:13.081Z,69.46
2019-05-21T02:59:13.101Z,69.46
2019-05-21T03:00:13.118Z,69.65
2019-05-21T03:01:13.137Z,69.56
2019-05-21T03:02:13.176Z,69.46
2019-05-21T03:03:13.187Z,69.37
2019-05-21T03:04:13.202Z,69.27
2019-05-21T03:05:13.216Z,69.17
2019-05-21T03:06:14.892Z,69.46
2019-05-21T03:07:13.256Z,69.27
2019-05-21T03:08:13.275Z,69.17
2019-05-21T03:09:13.294Z,69.27
2019-05-21T03:10:13.316Z,69.93
2019-05-21T03:11:13.334Z,69.84
2019-05-21T03:12:13.354Z,69.65
2019-05-21T03:13:13.372Z,69.56
2019-05-21T03:14:13.394Z,69.56
2019-05-21T03:15:13.413Z,69.65
2019-05-21T03:16:13.513Z,69.65
2019-05-21T03:17:13.499Z,69.84
2019-05-21T03:18:13.505Z,69.74
2019-05-21T03:19:16.462Z,69.65
2019-05-21T03:20:13.575Z,69.65
2019-05-21T03:21:13.586Z,69.65
2019-05-21T03:22:13.580Z,69.65
2019-05-21T03:23:13.570Z,69.74
2019-05-21T03:24:13.590Z,69.65
2019-05-21T03:25:13.605Z,69.74
2019-05-21T03:26:13.631Z,69.84
2019-05-21T03:27:13.653Z,69.74
2019-05-21T03:28:13.662Z,69.74
2019-05-21T03:29:13.682Z,69.84
2019-05-21T03:30:13.705Z,69.84
2019-05-21T03:31:13.726Z,69.65
2019-05-21T03:32:13.756Z,69.65
2019-05-21T03:33:13.766Z,69.65
2019-05-21T03:34:13.782Z,69.65
2019-05-21T03:35:13.802Z,69.46
2019-05-21T03:36:29.623Z,69.65
2019-05-21T03:37:13.842Z,69.46
2019-05-21T03:38:13.859Z,69.56
2019-05-21T03:39:13.884Z,69.65
2019-05-21T03:40:13.900Z,69.46
2019-05-21T03:41:13.916Z,69.65
2019-05-21T03:42:13.936Z,69.74
2019-05-21T03:43:13.960Z,69.74
2019-05-21T03:44:13.977Z,69.65
2019-05-21T03:45:14.000Z,69.65
2019-05-21T03:46:14.015Z,69.84
2019-05-21T03:47:14.035Z,69.84
2019-05-21T03:48:14.055Z,69.74
2019-05-21T03:49:14.090Z,69.27
2019-05-21T03:50:14.096Z,69.84
2019-05-21T03:51:14.113Z,69.74
2019-05-21T03:52:14.133Z,69.17
2019-05-21T03:53:14.150Z,69.46
2019-05-21T03:54:14.171Z,69.27
2019-05-21T03:55:14.189Z,69.27
2019-05-21T03:56:14.211Z,69.17
2019-05-21T03:57:14.232Z,69.37
2019-05-21T03:58:14.247Z,69.17
2019-05-21T03:59:14.269Z,69.56
2019-05-21T04:00:14.290Z,69.27
2019-05-21T04:01:14.307Z,69.46
2019-05-21T04:02:14.331Z,69.27
2019-05-21T04:03:14.348Z,69.27
2019-05-21T04:04:14.369Z,69.56
2019-05-21T04:05:14.382Z,69.46
2019-05-21T04:06:14.406Z,69.46
2019-05-21T04:07:14.425Z,69.49
2019-05-21T04:08:14.450Z,69.49
2019-05-21T04:09:14.464Z,69.59
2019-05-21T04:10:14.486Z,69.59
2019-05-21T04:11:14.591Z,69.49
2019-05-21T04:12:14.525Z,69.49
2019-05-21T04:13:14.541Z,69.49
2019-05-21T04:14:14.560Z,69.40
2019-05-21T04:15:14.586Z,69.40
2019-05-21T04:16:14.601Z,69.02
2019-05-21T04:17:14.621Z,69.11
2019-05-21T04:18:14.639Z,69.11
2019-05-21T04:19:14.661Z,68.92
2019-05-21T04:20:14.679Z,69.21
2019-05-21T04:21:14.698Z,69.11
2019-05-21T04:22:14.718Z,69.02
2019-05-21T04:23:14.737Z,69.31
2019-05-21T04:24:14.758Z,69.49
2019-05-21T04:25:14.777Z,69.49
2019-05-21T04:26:14.796Z,69.40
2019-05-21T04:27:14.822Z,69.02
2019-05-21T04:28:14.838Z,68.92
2019-05-21T04:29:14.858Z,68.92
2019-05-21T04:30:14.884Z,68.73
2019-05-21T04:31:14.899Z,69.02
2019-05-21T04:32:14.916Z,69.11
2019-05-21T04:33:14.942Z,68.92
2019-05-21T04:34:14.956Z,68.54
2019-05-21T04:35:14.975Z,68.82
2019-05-21T04:36:14.994Z,68.92
2019-05-21T04:37:17.484Z,68.82
2019-05-21T04:38:15.034Z,68.92
2019-05-21T04:39:15.059Z,68.92
2019-05-21T04:40:15.081Z,68.73
2019-05-21T04:41:15.092Z,69.02
2019-05-21T04:42:15.115Z,68.92
2019-05-21T04:43:15.133Z,68.82
2019-05-21T04:44:15.154Z,69.02
2019-05-21T04:45:15.175Z,69.02
2019-05-21T04:46:15.194Z,68.92
2019-05-21T04:47:15.216Z,68.67
2019-05-21T04:48:15.242Z,68.54
2019-05-21T04:49:15.251Z,68.54
2019-05-21T04:50:15.275Z,68.48
2019-05-21T04:51:15.290Z,68.67
2019-05-21T04:52:15.391Z,68.48
2019-05-21T04:53:15.397Z,68.38
2019-05-21T04:54:15.411Z,68.67
2019-05-21T04:55:15.454Z,68.57
2019-05-21T04:56:15.468Z,68.86
2019-05-21T04:57:15.455Z,68.86
2019-05-21T04:58:15.459Z,68.67
2019-05-21T04:59:15.468Z,68.57
2019-05-21T05:00:15.470Z,68.67
2019-05-21T05:01:15.491Z,68.67
2019-05-21T05:02:15.512Z,68.76
2019-05-21T05:03:15.530Z,68.76
2019-05-21T05:04:20.983Z,68.57
2019-05-21T05:05:15.577Z,68.76
2019-05-21T05:06:15.588Z,68.67
2019-05-21T05:07:27.683Z,68.57
2019-05-21T05:08:15.627Z,68.57
2019-05-21T05:09:15.650Z,68.57
2019-05-21T05:10:15.669Z,68.76
2019-05-21T05:11:15.693Z,68.67
2019-05-21T05:12:15.709Z,68.57
2019-05-21T05:13:15.729Z,68.86
2019-05-21T05:14:15.750Z,68.86
2019-05-21T05:15:15.779Z,68.76
2019-05-21T05:16:15.793Z,68.48
2019-05-21T05:17:15.810Z,68.38
2019-05-21T05:18:15.830Z,68.38
2019-05-21T05:19:15.850Z,68.29
2019-05-21T05:20:15.898Z,68.19
2019-05-21T05:21:15.887Z,68.38
2019-05-21T05:22:15.912Z,68.29
2019-05-21T05:23:15.930Z,68.41
2019-05-21T05:24:15.953Z,68.51
2019-05-21T05:25:15.969Z,68.41
2019-05-21T05:26:15.990Z,68.61
2019-05-21T05:27:16.010Z,68.70
2019-05-21T05:28:16.031Z,68.41
2019-05-21T05:29:16.050Z,68.51
2019-05-21T05:30:16.070Z,68.61
2019-05-21T05:31:16.091Z,68.51
2019-05-21T05:32:16.118Z,68.51
2019-05-21T05:33:16.132Z,68.41
2019-05-21T05:34:16.152Z,68.41
2019-05-21T05:35:16.173Z,68.41
2019-05-21T05:36:16.194Z,68.70
2019-05-21T05:37:16.214Z,68.90
2019-05-21T05:38:16.234Z,68.51
2019-05-21T05:39:16.255Z,68.41
2019-05-21T05:40:16.280Z,68.51
2019-05-21T05:41:16.295Z,68.70
2019-05-21T05:42:16.314Z,68.70
2019-05-21T05:43:16.338Z,68.80
2019-05-21T05:44:16.375Z,68.80
2019-05-21T05:45:16.383Z,68.61
2019-05-21T05:46:16.404Z,68.80
2019-05-21T05:47:16.417Z,68.64
2019-05-21T05:48:16.439Z,68.64
2019-05-21T05:49:16.460Z,68.64
2019-05-21T05:50:16.483Z,68.64
2019-05-21T05:51:16.501Z,68.64
2019-05-21T05:52:16.523Z,68.93
2019-05-21T05:53:16.540Z,68.93
2019-05-21T05:54:16.561Z,68.45
2019-05-21T05:55:16.581Z,68.55
2019-05-21T05:56:16.603Z,68.74
2019-05-21T05:57:16.623Z,68.55
2019-05-21T05:58:16.645Z,68.45
2019-05-21T05:59:16.668Z,68.74
2019-05-21T06:00:16.688Z,68.84
2019-05-21T06:01:16.706Z,68.74
2019-05-21T06:02:16.727Z,68.84
2019-05-21T06:03:16.750Z,68.74
2019-05-21T06:04:16.771Z,68.74
2019-05-21T06:05:16.793Z,68.93
2019-05-21T06:06:16.811Z,68.96
2019-05-21T06:07:16.832Z,68.77
2019-05-21T06:08:16.852Z,68.87
2019-05-21T06:09:16.871Z,68.68
2019-05-21T06:10:16.897Z,68.96
2019-05-21T06:11:16.916Z,68.49
2019-05-21T06:12:16.936Z,68.58
2019-05-21T06:13:16.954Z,68.58
2019-05-21T06:14:16.977Z,68.39
2019-05-21T06:15:16.999Z,68.49
2019-05-21T06:16:17.021Z,68.29
2019-05-21T06:17:17.042Z,67.91
2019-05-21T06:18:17.064Z,68.13
2019-05-21T06:19:17.087Z,68.23
2019-05-21T06:20:17.107Z,68.13
2019-05-21T06:21:17.127Z,67.94
2019-05-21T06:22:17.151Z,67.94
2019-05-21T06:23:17.171Z,68.23
2019-05-21T06:24:17.283Z,68.13
2019-05-21T06:25:17.302Z,68.07
2019-05-21T06:26:17.282Z,68.46
2019-05-21T06:27:17.278Z,68.36
2019-05-21T06:28:17.343Z,68.17
2019-05-21T06:29:17.347Z,67.98
2019-05-21T06:30:17.346Z,67.88
2019-05-21T06:31:17.345Z,67.79
2019-05-21T06:32:17.369Z,67.91
2019-05-21T06:33:17.403Z,67.91
2019-05-21T06:34:17.413Z,67.85
2019-05-21T06:35:17.438Z,67.47
2019-05-21T06:36:17.466Z,67.47
2019-05-21T06:37:17.483Z,66.93
2019-05-21T06:38:18.467Z,67.22
2019-05-21T06:39:17.529Z,66.83
2019-05-21T06:40:17.553Z,66.45
2019-05-21T06:41:17.575Z,66.86
2019-05-21T06:42:17.621Z,66.29
2019-05-21T06:43:17.626Z,66.29
2019-05-21T06:44:17.657Z,66.61
2019-05-21T06:45:17.669Z,66.61
2019-05-21T06:46:17.701Z,66.23
2019-05-21T06:47:17.724Z,66.07
2019-05-21T06:48:17.758Z,66.55
2019-05-21T06:49:17.771Z,65.69
2019-05-21T06:50:17.799Z,66.10
2019-05-21T06:51:17.859Z,65.72
2019-05-21T06:52:17.850Z,65.62
2019-05-21T06:53:17.875Z,66.10
2019-05-21T06:54:17.898Z,66.42
2019-05-21T06:55:17.928Z,66.23
2019-05-21T06:56:17.954Z,66.23
2019-05-21T06:57:17.983Z,67.10
2019-05-21T06:58:18.010Z,67.61
2019-05-21T06:59:18.036Z,68.67
2019-05-21T07:00:18.078Z,69.44
2019-05-21T07:01:18.085Z,70.30
2019-05-21T07:02:18.115Z,72.45
2019-05-21T07:03:18.142Z,82.65
2019-05-21T07:04:18.192Z,89.68
2019-05-21T07:05:18.195Z,95.94
2019-05-21T07:06:18.226Z,98.54
2019-05-21T07:07:18.251Z,99.99
2019-05-21T07:08:33.608Z,99.99
2019-05-21T07:09:18.309Z,99.99
2019-05-21T07:10:18.336Z,99.99
2019-05-21T07:11:18.362Z,99.99
2019-05-21T07:12:18.390Z,99.99
2019-05-21T07:13:18.417Z,99.99
2019-05-21T07:14:18.462Z,99.99
2019-05-21T07:15:18.476Z,99.99
2019-05-21T07:16:18.506Z,99.99
2019-05-21T07:17:18.530Z,99.99
2019-05-21T07:18:18.565Z,99.99
2019-05-21T07:19:18.592Z,99.99
2019-05-21T07:20:18.623Z,99.99
2019-05-21T07:21:18.651Z,99.99
2019-05-21T07:22:18.679Z,99.99
2019-05-21T07:23:18.710Z,99.99
2019-05-21T07:24:18.743Z,99.99
2019-05-21T07:25:18.767Z,99.99
2019-05-21T07:26:18.845Z,99.99
2019-05-21T07:27:18.830Z,99.99
2019-05-21T07:28:18.917Z,99.99
2019-05-21T07:29:18.888Z,99.99
2019-05-21T07:30:18.917Z,99.99
2019-05-21T07:31:18.950Z,99.99
2019-05-21T07:32:18.979Z,99.99
2019-05-21T07:33:19.008Z,99.99
2019-05-21T07:34:19.041Z,99.99
2019-05-21T07:35:19.071Z,99.99
2019-05-21T07:36:19.106Z,99.99
2019-05-21T07:37:19.189Z,99.99
2019-05-21T07:38:19.200Z,99.99
2019-05-21T07:39:19.277Z,99.99
2019-05-21T07:40:19.269Z,99.99
2019-05-21T07:41:20.333Z,99.99
2019-05-21T07:42:19.292Z,99.99
2019-05-21T07:43:19.318Z,99.99
2019-05-21T07:44:19.350Z,99.99
2019-05-21T07:45:19.380Z,99.99
2019-05-21T07:46:19.438Z,99.99
2019-05-21T07:47:19.444Z,99.99
2019-05-21T07:48:19.475Z,99.99
2019-05-21T07:49:19.507Z,99.99
2019-05-21T07:50:19.539Z,99.99
2019-05-21T07:51:19.571Z,99.99
2019-05-21T07:52:19.599Z,99.99
2019-05-21T07:53:19.631Z,99.99
2019-05-21T07:54:19.664Z,99.99
2019-05-21T07:55:19.697Z,99.99
2019-05-21T07:56:19.726Z,99.99
2019-05-21T07:57:19.760Z,99.99
2019-05-21T07:58:19.792Z,99.99
2019-05-21T07:59:19.830Z,99.99
2019-05-21T08:00:19.860Z,99.99
2019-05-21T08:01:19.890Z,99.99
2019-05-21T08:02:19.921Z,99.99
2019-05-21T08:03:19.952Z,99.99
2019-05-21T08:04:19.980Z,99.99
2019-05-21T08:05:20.016Z,99.99
2019-05-21T08:06:20.048Z,99.99
2019-05-21T08:07:20.080Z,99.99
2019-05-21T08:08:20.120Z,99.99
2019-05-21T08:09:20.144Z,99.99
2019-05-21T08:10:20.180Z,99.99
2019-05-21T08:11:20.212Z,99.99
2019-05-21T08:12:37.331Z,99.99
2019-05-21T08:13:20.279Z,99.99
2019-05-21T08:14:20.312Z,99.99
2019-05-21T08:15:20.348Z,99.99
2019-05-21T08:16:20.379Z,99.99
2019-05-21T08:17:20.409Z,99.99
2019-05-21T08:18:20.446Z,99.99
2019-05-21T08:19:21.902Z,99.99
2019-05-21T08:20:20.510Z,99.99
2019-05-21T08:21:20.546Z,99.99
2019-05-21T08:22:20.585Z,99.99
2019-05-21T08:23:20.617Z,99.99
2019-05-21T08:24:20.653Z,99.99
2019-05-21T08:25:20.684Z,99.99
2019-05-21T08:26:20.727Z,99.99
2019-05-21T08:27:20.780Z,99.99
2019-05-21T08:28:20.786Z,99.99
2019-05-21T08:29:20.824Z,99.99
2019-05-21T08:30:20.856Z,99.99
2019-05-21T08:31:20.891Z,99.99
2019-05-21T08:32:20.926Z,99.99
2019-05-21T08:33:20.961Z,99.99
2019-05-21T08:34:20.995Z,99.99
2019-05-21T08:35:21.048Z,99.99
2019-05-21T08:36:21.127Z,99.99
2019-05-21T08:37:21.136Z,99.99
2019-05-21T08:38:21.191Z,99.99
2019-05-21T08:39:28.989Z,99.99
2019-05-21T08:40:21.202Z,99.99
2019-05-21T08:41:21.226Z,99.99
2019-05-21T08:42:21.258Z,99.99
2019-05-21T08:43:22.240Z,99.99
2019-05-21T08:44:21.328Z,99.99
2019-05-21T08:45:21.357Z,99.99
2019-05-21T08:46:21.387Z,99.99
2019-05-21T08:47:21.419Z,99.99
2019-05-21T08:48:21.450Z,99.99
2019-05-21T08:49:21.482Z,99.99
2019-05-21T08:50:21.513Z,99.99
2019-05-21T08:51:21.545Z,99.99
2019-05-21T08:52:21.585Z,99.99
2019-05-21T08:53:21.605Z,99.99
2019-05-21T08:54:21.638Z,99.99
2019-05-21T08:55:21.671Z,99.99
2019-05-21T08:56:21.703Z,99.99
2019-05-21T08:57:21.733Z,99.99
2019-05-21T08:58:21.765Z,99.99
2019-05-21T08:59:21.800Z,99.99
2019-05-21T09:00:21.830Z,99.99
2019-05-21T09:01:21.866Z,99.99
2019-05-21T09:02:21.891Z,99.99
2019-05-21T09:03:21.926Z,99.99
2019-05-21T09:04:21.960Z,99.99
2019-05-21T09:05:22.051Z,99.99
2019-05-21T09:06:22.018Z,99.99
2019-05-21T09:07:22.064Z,99.99
2019-05-21T09:08:22.084Z,99.99
2019-05-21T09:09:22.110Z,99.99
2019-05-21T09:10:22.139Z,99.99
2019-05-21T09:11:22.171Z,99.99
2019-05-21T09:12:22.201Z,99.99
2019-05-21T09:13:22.235Z,99.99
2019-05-21T09:14:22.261Z,99.99
2019-05-21T09:15:22.292Z,99.99
2019-05-21T09:16:22.329Z,99.99
2019-05-21T09:17:22.368Z,99.99
2019-05-21T09:18:22.422Z,99.99
2019-05-21T09:19:22.413Z,99.99
2019-05-21T09:20:22.440Z,99.99
2019-05-21T09:21:22.466Z,99.99
2019-05-21T09:22:22.495Z,99.99
2019-05-21T09:23:22.539Z,99.99
2019-05-21T09:24:22.558Z,99.99
2019-05-21T09:25:22.590Z,99.99
2019-05-21T09:26:22.618Z,99.99
2019-05-21T09:27:22.647Z,99.99
2019-05-21T09:28:22.677Z,99.99
2019-05-21T09:29:22.712Z,99.99
2019-05-21T09:30:22.739Z,99.99
2019-05-21T09:31:22.771Z,99.99
2019-05-21T09:32:22.800Z,99.99
2019-05-21T09:33:22.830Z,99.99
2019-05-21T09:34:22.862Z,99.99
2019-05-21T09:35:22.896Z,99.99
2019-05-21T09:36:25.207Z,99.99
2019-05-21T09:37:22.956Z,99.99
2019-05-21T09:38:23.049Z,99.99
2019-05-21T09:39:23.045Z,99.99
2019-05-21T09:40:23.114Z,99.99
2019-05-21T09:41:23.130Z,99.99
2019-05-21T09:42:23.113Z,99.99
2019-05-21T09:43:23.142Z,99.99
2019-05-21T09:44:23.171Z,99.99
2019-05-21T09:45:23.203Z,99.99
2019-05-21T09:46:23.238Z,99.99
2019-05-21T09:47:23.266Z,99.99
2019-05-21T09:48:23.304Z,99.99
2019-05-21T09:49:23.328Z,99.99
2019-05-21T09:50:23.362Z,99.99
2019-05-21T09:51:23.393Z,99.99
2019-05-21T09:52:23.424Z,99.99
2019-05-21T09:53:23.457Z,99.99
2019-05-21T09:54:23.490Z,99.99
2019-05-21T09:55:23.530Z,99.99
2019-05-21T09:56:23.556Z,99.99
2019-05-21T09:57:23.586Z,99.99
2019-05-21T09:58:23.633Z,99.99
2019-05-21T09:59:23.654Z,99.99
2019-05-21T10:00:23.692Z,99.99
2019-05-21T10:01:23.719Z,99.99
2019-05-21T10:02:23.755Z,99.99
2019-05-21T10:03:23.793Z,99.99
2019-05-21T10:04:23.824Z,99.99
2019-05-21T10:05:23.858Z,99.99
2019-05-21T10:06:23.895Z,99.99
2019-05-21T10:07:38.117Z,99.99
2019-05-21T10:08:23.967Z,99.99
2019-05-21T10:09:23.997Z,99.99
2019-05-21T10:10:24.032Z,99.99
2019-05-21T10:11:24.072Z,99.99
2019-05-21T10:12:24.104Z,99.99
2019-05-21T10:13:24.137Z,99.99
2019-05-21T10:14:24.170Z,99.99
2019-05-21T10:15:24.210Z,99.99
2019-05-21T10:16:24.240Z,99.99
2019-05-21T10:17:24.271Z,99.99
2019-05-21T10:18:24.308Z,99.99
2019-05-21T10:19:24.342Z,99.99
2019-05-21T10:20:24.371Z,99.99
2019-05-21T10:21:24.405Z,99.99
2019-05-21T10:22:24.438Z,99.99
2019-05-21T10:23:24.467Z,99.99
2019-05-21T10:24:24.501Z,99.99
2019-05-21T10:25:24.530Z,99.99
2019-05-21T10:26:24.561Z,99.99
2019-05-21T10:27:24.593Z,99.99
2019-05-21T10:28:24.649Z,99.99
2019-05-21T10:29:24.661Z,99.99
2019-05-21T10:30:24.801Z,99.99
2019-05-21T10:31:24.722Z,99.99
2019-05-21T10:32:24.752Z,99.99
2019-05-21T10:33:24.784Z,98.83
2019-05-21T10:34:24.819Z,99.99
2019-05-21T10:35:24.855Z,97.13
2019-05-21T10:36:24.970Z,98.93
2019-05-21T10:37:24.982Z,99.02
2019-05-21T10:38:25.037Z,95.96
2019-05-21T10:39:25.040Z,96.40
2019-05-21T10:40:25.047Z,92.26
2019-05-21T10:41:25.066Z,91.77
2019-05-21T10:42:25.101Z,94.74
2019-05-21T10:43:25.140Z,93.42
2019-05-21T10:44:25.184Z,95.03
2019-05-21T10:45:25.213Z,94.54
2019-05-21T10:46:25.254Z,96.04
2019-05-21T10:47:25.288Z,91.75
2019-05-21T10:48:25.326Z,94.34
2019-05-21T10:49:25.366Z,95.31
2019-05-21T10:50:25.407Z,91.99
2019-05-21T10:51:25.449Z,91.25
2019-05-21T10:52:25.499Z,91.30
2019-05-21T10:53:25.521Z,86.84
2019-05-21T10:54:25.562Z,86.30
2019-05-21T10:55:25.603Z,86.98
2019-05-21T10:56:25.651Z,88.89
2019-05-21T10:57:25.691Z,85.99
2019-05-21T10:58:25.721Z,85.99
2019-05-21T10:59:25.762Z,83.15
2019-05-21T11:00:25.801Z,80.05
2019-05-21T11:01:25.866Z,81.43
2019-05-21T11:02:25.887Z,75.84
2019-05-21T11:03:25.926Z,74.76
2019-05-21T11:04:25.965Z,76.62
2019-05-21T11:05:28.800Z,76.76
2019-05-21T11:06:26.046Z,73.23
2019-05-21T11:07:26.104Z,75.29
2019-05-21T11:08:26.129Z,75.68
2019-05-21T11:09:26.165Z,79.60
2019-05-21T11:10:26.201Z,80.68
2019-05-21T11:11:26.241Z,77.70
2019-05-21T11:12:26.290Z,78.68
2019-05-21T11:13:26.317Z,79.13
2019-05-21T11:14:26.367Z,77.67
2019-05-21T11:15:26.397Z,75.77
2019-05-21T11:16:26.437Z,73.19
2019-05-21T11:17:26.467Z,71.10
2019-05-21T11:18:26.502Z,75.60
2019-05-21T11:19:26.540Z,74.97
2019-05-21T11:20:26.574Z,78.39
2019-05-21T11:21:26.612Z,79.57
2019-05-21T11:22:26.645Z,80.05
2019-05-21T11:23:26.681Z,80.64
2019-05-21T11:24:26.714Z,75.88
2019-05-21T11:25:26.757Z,72.27
2019-05-21T11:26:26.789Z,68.03
2019-05-21T11:27:26.828Z,70.18
2019-05-21T11:28:26.922Z,75.15
2019-05-21T11:29:26.921Z,77.85
2019-05-21T11:30:26.978Z,79.32
2019-05-21T11:31:26.981Z,75.21
2019-05-21T11:32:26.990Z,73.43
2019-05-21T11:33:27.026Z,72.35
2019-05-21T11:34:27.058Z,76.51
2019-05-21T11:35:27.088Z,78.26
2019-05-21T11:36:27.120Z,78.65
2019-05-21T11:37:27.152Z,78.75
2019-05-21T11:38:39.617Z,80.31
2019-05-21T11:39:27.221Z,79.49
2019-05-21T11:40:27.251Z,79.30
2019-05-21T11:41:27.287Z,78.38
2019-05-21T11:42:27.313Z,80.04
2019-05-21T11:43:27.344Z,79.90
2019-05-21T11:44:27.377Z,79.02
2019-05-21T11:45:32.110Z,77.37
2019-05-21T11:46:27.439Z,75.23
2019-05-21T11:47:27.470Z,74.26
2019-05-21T11:48:27.504Z,77.99
2019-05-21T11:49:27.537Z,74.39
2019-05-21T11:50:27.568Z,75.59
2019-05-21T11:51:27.601Z,73.25
2019-05-21T11:52:27.636Z,76.41
2019-05-21T11:53:31.581Z,78.50
2019-05-21T11:54:27.699Z,80.39
2019-05-21T11:55:27.741Z,78.96
2019-05-21T11:56:27.776Z,77.25
2019-05-21T11:57:27.801Z,72.27
2019-05-21T11:58:27.837Z,73.54
2019-05-21T11:59:27.871Z,73.14
2019-05-21T12:00:27.910Z,70.31
2019-05-21T12:01:27.943Z,66.17
2019-05-21T12:02:27.976Z,67.74
2019-05-21T12:03:28.013Z,71.64
2019-05-21T12:04:28.047Z,71.39
2019-05-21T12:05:28.081Z,73.21
2019-05-21T12:06:28.130Z,74.90
2019-05-21T12:07:28.150Z,74.57
2019-05-21T12:08:28.184Z,70.96
2019-05-21T12:09:28.216Z,72.81
2019-05-21T12:10:28.254Z,71.84
2019-05-21T12:11:28.285Z,71.64
2019-05-21T12:12:28.319Z,71.90
2019-05-21T12:13:28.361Z,73.66
2019-05-21T12:14:28.386Z,72.58
2019-05-21T12:15:28.420Z,74.15
2019-05-21T12:16:28.458Z,70.83
2019-05-21T12:17:28.484Z,68.59
2019-05-21T12:18:28.522Z,73.27
2019-05-21T12:19:28.558Z,74.44
2019-05-21T12:20:36.601Z,69.46
2019-05-21T12:21:28.621Z,69.95
2019-05-21T12:22:28.652Z,70.04
2019-05-21T12:23:28.686Z,70.79
2019-05-21T12:24:28.719Z,69.36
2019-05-21T12:25:28.787Z,72.49
2019-05-21T12:26:28.878Z,72.74
2019-05-21T12:27:28.869Z,74.40
2019-05-21T12:28:28.902Z,74.98
2019-05-21T12:29:28.906Z,74.11
2019-05-21T12:30:28.931Z,73.23
2019-05-21T12:31:28.951Z,73.58
2019-05-21T12:32:28.982Z,71.73
2019-05-21T12:33:29.013Z,71.54
2019-05-21T12:34:29.048Z,73.10
2019-05-21T12:35:29.080Z,70.66
2019-05-21T12:36:29.116Z,71.92
2019-05-21T12:37:29.143Z,73.49
2019-05-21T12:38:29.176Z,71.64
2019-05-21T12:39:29.206Z,72.94
2019-05-21T12:40:29.241Z,74.50
2019-05-21T12:41:29.272Z,73.17
2019-05-21T12:42:29.304Z,68.19
2019-05-21T12:43:29.337Z,68.10
2019-05-21T12:44:29.374Z,68.52
2019-05-21T12:45:29.404Z,65.43
2019-05-21T12:46:29.439Z,65.23
2019-05-21T12:47:29.477Z,67.09
2019-05-21T12:48:29.506Z,66.14
2019-05-21T12:49:29.548Z,65.46
2019-05-21T12:50:29.578Z,67.90
2019-05-21T12:51:29.612Z,66.99
2019-05-21T12:52:29.648Z,63.96